Terminal Aerodrome Forecast
Issued by NWS

Home | Current Version | Previous Version | Text Only | Print | Product List | Glossary On
Versions: 1 2 3 4 5 6 7 8 9 10 11 12 13 14 15 16 17 18 19 20 21 22 23 24 25 26 27 28 29 30 31 32 33 34
000
FTUS43 KGLD 280539 CCA
TAFMCK
TAF COR
KMCK 280539Z 2806/2906 16010KT P6SM BKN090
     FM280900 14007KT 6SM BR BKN020
     FM281100 15007KT 4SM BR OVC003
     FM281800 16011KT P6SM BKN040
     FM282200 17009KT P6SM VCTS OVC090CB
      TEMPO 2823/2903 2SM +TSRA OVC040CB
     FM290400 28009KT 6SM SHRA OVC090=

USA.gov is the U.S. government's official web portal to all federal, state and local government web resources and services.